Terminal Aerodrome Forecast
Issued by NWS

Home | Current Version | Previous Version | Text Only | Print | Product List | Glossary On
Versions: 1 2 3 4 5 6 7 8 9 10 11 12 13 14 15 16 17 18 19
000
FTUS46 KMFR 190203 AAB
TAFRBG
TAF AMD
KRBG 190203Z 1902/1924 17003KT P6SM -RASN BKN008 BKN015 OVC030
     FM190300 VRB05KT 5SM -SHRASN SCT010 BKN020 OVC035
     FM190900 00000KT P6SM -SHSN BKN020 OVC035
     FM191200 VRB03KT P6SM OVC015
     FM191800 32007KT P6SM BKN020 OVC040=

USA.gov is the U.S. government's official web portal to all federal, state and local government web resources and services.